createdAt,value
2019-02-19T00:01:28.284Z,58.19
2019-02-19T00:05:35.090Z,58.68
2019-02-19T00:09:41.959Z,59.04
2019-02-19T00:13:48.837Z,58.43
2019-02-19T00:17:55.706Z,58.38
2019-02-19T00:22:02.701Z,58.99
2019-02-19T00:26:26.815Z,59.16
2019-02-19T00:30:33.622Z,60.27
2019-02-19T00:34:40.455Z,62.07
2019-02-19T00:38:47.246Z,63.06
2019-02-19T00:42:54.065Z,63.03
2019-02-19T00:47:00.940Z,62.33
2019-02-19T00:51:07.815Z,62.19
2019-02-19T00:55:14.720Z,61.71
2019-02-19T00:59:21.691Z,61.32
2019-02-19T01:03:28.506Z,60.28
2019-02-19T01:07:35.347Z,59.85
2019-02-19T01:11:42.168Z,59.34
2019-02-19T01:15:49.000Z,59.32
2019-02-19T01:19:55.836Z,58.92
2019-02-19T01:24:02.641Z,58.87
2019-02-19T01:28:09.892Z,59.01
2019-02-19T01:32:16.765Z,58.89
2019-02-19T01:36:23.588Z,58.82
2019-02-19T01:40:30.428Z,58.67
2019-02-19T01:44:37.292Z,58.52
2019-02-19T01:48:44.134Z,58.54
2019-02-19T01:52:51.055Z,58.40
2019-02-19T01:56:57.982Z,58.16
2019-02-19T02:01:04.847Z,58.16
2019-02-19T02:05:11.913Z,57.94
2019-02-19T02:09:18.746Z,57.69
2019-02-19T02:13:25.715Z,57.68
2019-02-19T02:17:32.604Z,57.58
2019-02-19T02:21:39.561Z,57.70
2019-02-19T02:25:46.425Z,57.38
2019-02-19T02:29:53.278Z,57.39
2019-02-19T02:34:00.137Z,57.58
2019-02-19T02:38:07.013Z,57.71
2019-02-19T02:42:13.873Z,57.96
2019-02-19T02:46:21.809Z,58.34
2019-02-19T02:50:28.616Z,58.21
2019-02-19T02:54:35.478Z,58.31
2019-02-19T02:58:42.317Z,58.28
2019-02-19T03:02:49.182Z,58.17
2019-02-19T03:07:04.365Z,58.25
2019-02-19T03:11:11.236Z,58.33
2019-02-19T03:15:18.426Z,58.26
2019-02-19T03:19:25.270Z,58.26
2019-02-19T03:23:32.084Z,58.31
2019-02-19T03:27:38.923Z,58.32
2019-02-19T03:31:45.769Z,57.99
2019-02-19T03:35:52.680Z,57.94
2019-02-19T03:39:59.511Z,57.85
2019-02-19T03:44:06.371Z,57.91
2019-02-19T03:48:13.208Z,57.80
2019-02-19T03:52:20.077Z,58.06
2019-02-19T03:56:26.870Z,58.05
2019-02-19T04:00:33.755Z,58.21
2019-02-19T04:04:40.570Z,57.99
2019-02-19T04:08:47.487Z,58.26
2019-02-19T04:12:54.320Z,58.28
2019-02-19T04:17:01.139Z,58.52
2019-02-19T04:21:09.154Z,58.69
2019-02-19T04:25:16.077Z,59.06
2019-02-19T04:29:22.913Z,59.04
2019-02-19T04:33:29.895Z,59.17
2019-02-19T04:37:36.684Z,59.24
2019-02-19T04:41:43.532Z,59.11
2019-02-19T04:45:50.369Z,59.59
2019-02-19T04:49:57.289Z,59.59
2019-02-19T04:54:04.168Z,59.88
2019-02-19T04:58:10.973Z,59.84
2019-02-19T05:02:17.861Z,60.14
2019-02-19T05:06:24.767Z,59.84
2019-02-19T05:10:31.619Z,59.97
2019-02-19T05:14:38.437Z,59.93
2019-02-19T05:18:45.381Z,59.93
2019-02-19T05:22:52.208Z,59.70
2019-02-19T05:27:00.110Z,59.72
2019-02-19T05:31:06.991Z,59.79
2019-02-19T05:35:13.882Z,59.88
2019-02-19T05:39:20.779Z,60.02
2019-02-19T05:43:27.830Z,59.98
2019-02-19T05:47:34.684Z,59.91
2019-02-19T05:51:44.245Z,59.96
2019-02-19T05:55:51.111Z,59.81
2019-02-19T05:59:57.948Z,59.66
2019-02-19T06:04:06.010Z,59.51
2019-02-19T06:08:12.983Z,59.83
2019-02-19T06:12:19.811Z,59.79
2019-02-19T06:16:26.701Z,60.07
2019-02-19T06:20:33.633Z,60.14
2019-02-19T06:24:40.540Z,60.52
2019-02-19T06:28:47.444Z,60.47
2019-02-19T06:32:54.302Z,60.41
2019-02-19T06:37:01.355Z,60.50
2019-02-19T06:41:08.330Z,60.79
2019-02-19T06:45:15.351Z,60.74
2019-02-19T06:49:22.314Z,60.84
2019-02-19T06:53:29.340Z,60.81
2019-02-19T06:57:36.192Z,60.73
2019-02-19T07:01:53.888Z,60.90
2019-02-19T07:06:00.763Z,60.76
2019-02-19T07:10:07.891Z,60.58
2019-02-19T07:14:14.871Z,60.39
2019-02-19T07:18:21.654Z,60.56
2019-02-19T07:22:28.547Z,60.38
2019-02-19T07:26:35.401Z,60.48
2019-02-19T07:30:42.268Z,60.71
2019-02-19T07:34:49.239Z,60.93
2019-02-19T07:38:56.058Z,60.58
2019-02-19T07:43:03.100Z,60.78
2019-02-19T07:47:10.155Z,61.16
2019-02-19T07:51:17.015Z,61.19
2019-02-19T07:55:24.005Z,61.31
2019-02-19T07:59:31.000Z,61.80
2019-02-19T08:03:38.091Z,62.03
2019-02-19T08:07:46.795Z,61.99
2019-02-19T08:12:12.577Z,62.70
2019-02-19T08:16:19.657Z,63.48
2019-02-19T08:20:29.240Z,64.69
2019-02-19T08:24:36.317Z,65.33
2019-02-19T08:28:43.381Z,65.90
2019-02-19T08:32:50.288Z,66.49
2019-02-19T08:36:57.394Z,67.47
2019-02-19T08:41:04.388Z,67.83
2019-02-19T08:45:11.588Z,69.06
2019-02-19T08:49:18.477Z,69.54
2019-02-19T08:53:25.365Z,69.34
2019-02-19T08:57:32.198Z,70.57
2019-02-19T09:01:39.040Z,70.44
2019-02-19T09:05:45.934Z,71.21
2019-02-19T09:09:54.073Z,70.89
2019-02-19T09:14:00.965Z,71.77
2019-02-19T09:18:07.891Z,70.80
2019-02-19T09:22:14.754Z,71.89
2019-02-19T09:26:21.607Z,72.78
2019-02-19T09:30:28.447Z,72.96
2019-02-19T09:34:35.333Z,73.59
2019-02-19T09:38:42.190Z,73.73
2019-02-19T09:42:49.104Z,73.86
2019-02-19T09:46:56.037Z,74.65
2019-02-19T09:51:05.057Z,74.80
2019-02-19T09:55:12.803Z,74.60
2019-02-19T09:59:19.702Z,74.83
2019-02-19T10:03:27.747Z,75.06
2019-02-19T10:07:34.985Z,75.82
2019-02-19T10:11:41.906Z,75.70
2019-02-19T10:15:48.814Z,75.26
2019-02-19T10:19:55.719Z,75.69
2019-02-19T10:24:02.692Z,75.50
2019-02-19T10:28:09.550Z,75.55
2019-02-19T10:32:16.530Z,75.56
2019-02-19T10:36:24.062Z,75.68
2019-02-19T10:40:32.383Z,75.90
2019-02-19T10:44:39.252Z,75.73
2019-02-19T10:48:53.721Z,75.20
2019-02-19T10:53:00.859Z,74.82
2019-02-19T10:57:10.793Z,74.25
2019-02-19T11:01:17.674Z,74.55
2019-02-19T11:05:24.618Z,74.68
2019-02-19T11:09:31.453Z,74.28
2019-02-19T11:13:38.373Z,73.83
2019-02-19T11:17:45.270Z,73.75
2019-02-19T11:21:52.198Z,72.84
2019-02-19T11:25:59.088Z,73.45
2019-02-19T11:30:07.508Z,73.93
2019-02-19T11:34:14.979Z,73.67
2019-02-19T11:38:21.925Z,72.38
2019-02-19T11:42:28.811Z,72.91
2019-02-19T11:46:35.698Z,72.57
2019-02-19T11:50:42.586Z,72.18
2019-02-19T11:54:49.373Z,71.12
2019-02-19T11:58:56.258Z,68.85
2019-02-19T12:03:03.154Z,66.75
2019-02-19T12:07:10.292Z,64.06
2019-02-19T12:11:17.094Z,60.24
2019-02-19T12:15:23.983Z,59.96
2019-02-19T12:19:30.850Z,58.91
2019-02-19T12:23:37.785Z,55.59
2019-02-19T12:27:44.782Z,56.08
2019-02-19T12:31:51.684Z,55.27
2019-02-19T12:35:58.628Z,55.65
2019-02-19T12:40:05.819Z,53.56
2019-02-19T12:44:12.810Z,53.00
2019-02-19T12:48:26.898Z,56.23
2019-02-19T12:52:33.814Z,55.77
2019-02-19T12:56:40.864Z,52.54
2019-02-19T13:00:47.797Z,53.19
2019-02-19T13:04:54.690Z,53.36
2019-02-19T13:09:01.917Z,53.93
2019-02-19T13:13:10.551Z,52.39
2019-02-19T13:17:17.768Z,50.31
2019-02-19T13:21:24.790Z,49.51
2019-02-19T13:25:31.768Z,48.20
2019-02-19T13:29:38.671Z,48.53
2019-02-19T13:33:45.661Z,48.44
2019-02-19T13:37:52.545Z,48.36
2019-02-19T13:42:00.379Z,48.70
2019-02-19T13:46:07.322Z,51.59
2019-02-19T13:50:17.734Z,51.28
2019-02-19T13:54:29.766Z,51.89
2019-02-19T13:58:36.658Z,51.71
2019-02-19T14:02:43.473Z,52.27
2019-02-19T14:06:50.324Z,53.19
2019-02-19T14:10:57.234Z,52.49
2019-02-19T14:15:17.584Z,51.70
2019-02-19T14:19:41.430Z,52.12
2019-02-19T14:24:06.419Z,51.82
2019-02-19T14:28:35.082Z,52.59
2019-02-19T14:33:06.782Z,51.84
2019-02-19T14:37:31.445Z,50.82
2019-02-19T14:42:06.229Z,51.20
2019-02-19T14:46:30.652Z,51.13
2019-02-19T14:50:55.255Z,52.00
2019-02-19T14:55:33.166Z,52.40
2019-02-19T14:59:58.999Z,51.92
2019-02-19T15:04:23.702Z,51.45
2019-02-19T15:08:48.277Z,51.77
2019-02-19T15:13:20.452Z,51.97
2019-02-19T15:17:42.420Z,51.77
2019-02-19T15:22:08.240Z,52.02
2019-02-19T15:26:45.877Z,52.01
2019-02-19T15:31:14.926Z,51.97
2019-02-19T15:35:48.471Z,52.21
2019-02-19T15:40:29.409Z,52.41
2019-02-19T15:44:55.269Z,52.10
2019-02-19T15:49:16.589Z,52.51
2019-02-19T15:53:40.605Z,52.80
2019-02-19T15:58:05.345Z,53.22
2019-02-19T16:02:34.171Z,53.21
2019-02-19T16:06:47.557Z,53.57
2019-02-19T16:11:03.066Z,53.36
2019-02-19T16:15:17.058Z,53.59
2019-02-19T16:19:38.870Z,53.77
2019-02-19T16:24:04.735Z,53.51
2019-02-19T16:28:30.850Z,53.35
2019-02-19T16:32:55.342Z,53.04
2019-02-19T16:37:11.549Z,52.53
2019-02-19T16:41:29.838Z,51.50
2019-02-19T16:45:44.780Z,51.76
2019-02-19T16:50:16.681Z,52.42
2019-02-19T16:54:54.600Z,52.38
2019-02-19T16:59:17.741Z,52.25
2019-02-19T17:03:43.529Z,52.76
2019-02-19T17:07:57.536Z,52.79
2019-02-19T17:12:18.643Z,52.84
2019-02-19T17:16:58.053Z,53.05
2019-02-19T17:21:23.786Z,53.35
2019-02-19T17:25:52.750Z,54.04
2019-02-19T17:30:12.698Z,53.95
2019-02-19T17:34:50.489Z,54.67
2019-02-19T17:39:34.435Z,55.92
2019-02-19T17:44:00.053Z,56.18
2019-02-19T17:48:25.901Z,57.21
2019-02-19T17:52:58.101Z,57.55
2019-02-19T17:57:42.227Z,58.56
2019-02-19T18:02:06.748Z,59.24
2019-02-19T18:06:38.519Z,59.77
2019-02-19T18:11:22.956Z,60.26
2019-02-19T18:15:38.951Z,60.52
2019-02-19T18:19:46.038Z,60.88
2019-02-19T18:23:53.243Z,60.92
2019-02-19T18:28:00.255Z,61.14
2019-02-19T18:32:07.538Z,61.41
2019-02-19T18:36:15.097Z,61.67
2019-02-19T18:40:22.174Z,61.90
2019-02-19T18:44:29.364Z,61.86
2019-02-19T18:48:36.431Z,62.08
2019-02-19T18:52:43.595Z,61.70
2019-02-19T18:56:50.675Z,61.92
2019-02-19T19:00:58.541Z,61.83
2019-02-19T19:05:05.659Z,62.10
2019-02-19T19:09:14.568Z,62.19
2019-02-19T19:13:21.823Z,62.22
2019-02-19T19:17:31.097Z,62.14
2019-02-19T19:21:40.709Z,62.55
2019-02-19T19:25:47.849Z,62.63
2019-02-19T19:29:55.185Z,62.84
2019-02-19T19:34:03.318Z,62.91
2019-02-19T19:38:12.433Z,62.88
2019-02-19T19:42:22.673Z,63.24
2019-02-19T19:46:30.187Z,63.21
2019-02-19T19:50:37.568Z,63.08
2019-02-19T19:54:44.949Z,63.17
2019-02-19T19:58:52.573Z,63.16
2019-02-19T20:03:01.586Z,63.26
2019-02-19T20:07:09.097Z,63.48
2019-02-19T20:11:16.912Z,63.42
2019-02-19T20:15:24.921Z,64.06
2019-02-19T20:19:37.133Z,63.77
2019-02-19T20:23:45.780Z,67.19
2019-02-19T20:27:53.380Z,64.32
2019-02-19T20:32:00.958Z,66.46
2019-02-19T20:36:11.834Z,65.71
2019-02-19T20:40:19.389Z,65.93
2019-02-19T20:44:29.909Z,65.23
2019-02-19T20:48:37.738Z,64.57
2019-02-19T20:52:45.329Z,63.74
2019-02-19T20:57:00.022Z,64.02
2019-02-19T21:01:08.220Z,64.26
2019-02-19T21:05:15.763Z,64.18
2019-02-19T21:09:23.297Z,64.79
2019-02-19T21:13:35.205Z,64.64
2019-02-19T21:17:42.275Z,65.48
2019-02-19T21:21:49.641Z,64.94
2019-02-19T21:25:57.158Z,64.75
2019-02-19T21:30:05.041Z,65.26
2019-02-19T21:34:13.635Z,65.25
2019-02-19T21:38:20.973Z,65.44
2019-02-19T21:42:28.621Z,65.56
2019-02-19T21:46:38.756Z,65.88
2019-02-19T21:50:46.246Z,65.81
2019-02-19T21:55:05.489Z,66.03
2019-02-19T21:59:13.003Z,66.18
2019-02-19T22:03:20.155Z,66.44
2019-02-19T22:07:27.405Z,66.64
2019-02-19T22:11:34.608Z,66.81
2019-02-19T22:15:42.488Z,67.11
2019-02-19T22:19:49.575Z,67.36
2019-02-19T22:23:56.750Z,66.96
2019-02-19T22:28:03.727Z,67.65
2019-02-19T22:32:11.831Z,67.56
2019-02-19T22:36:19.032Z,67.66
2019-02-19T22:40:26.106Z,68.19
2019-02-19T22:44:33.226Z,68.42
2019-02-19T22:48:40.204Z,68.96
2019-02-19T22:52:47.032Z,68.56
2019-02-19T22:56:55.263Z,69.09
2019-02-19T23:01:12.450Z,69.16
2019-02-19T23:05:20.854Z,69.48
2019-02-19T23:09:33.500Z,69.44
2019-02-19T23:13:49.129Z,69.88
2019-02-19T23:17:56.250Z,69.72
2019-02-19T23:22:03.107Z,69.94
2019-02-19T23:26:09.997Z,70.50
2019-02-19T23:30:17.132Z,70.54
2019-02-19T23:34:24.037Z,70.89
2019-02-19T23:38:30.841Z,70.89
2019-02-19T23:42:37.749Z,71.92
2019-02-19T23:46:44.608Z,71.80
2019-02-19T23:50:51.425Z,72.28
2019-02-19T23:54:58.209Z,72.22
2019-02-19T23:59:05.031Z,71.92
